createdAt,value
2018-06-23T00:00:58.322Z,99.90
2018-06-23T00:05:54.801Z,99.90
2018-06-23T00:08:23.235Z,99.90
2018-06-23T00:10:51.553Z,99.90
2018-06-23T00:13:20.900Z,99.90
2018-06-23T00:15:49.310Z,99.90
2018-06-23T00:18:17.649Z,99.90
2018-06-23T00:20:45.962Z,99.90
2018-06-23T00:26:00.311Z,99.90
2018-06-23T00:28:28.713Z,99.90
2018-06-23T00:33:26.578Z,99.90
2018-06-23T00:35:54.961Z,99.90
2018-06-23T00:38:23.278Z,99.90
2018-06-23T00:50:44.296Z,99.90
2018-06-23T00:53:12.669Z,99.90
2018-06-23T00:55:40.972Z,99.90
2018-06-23T00:58:10.201Z,99.90
2018-06-23T01:03:06.666Z,99.90
2018-06-23T01:08:03.069Z,99.90
2018-06-23T01:10:31.353Z,99.90
2018-06-23T01:12:59.743Z,99.90
2018-06-23T01:15:28.062Z,99.90
2018-06-23T01:22:52.604Z,99.90
2018-06-23T01:25:20.914Z,99.90
2018-06-23T01:27:50.690Z,99.90
2018-06-23T01:32:50.615Z,99.90
2018-06-23T01:37:47.062Z,99.90
2018-06-23T01:42:46.399Z,99.90
2018-06-23T01:45:14.798Z,99.90
2018-06-23T01:47:43.325Z,99.90
2018-06-23T01:50:11.680Z,99.90
2018-06-23T01:52:39.981Z,99.90
2018-06-23T01:57:36.357Z,99.90
2018-06-23T02:02:32.804Z,99.90
2018-06-23T02:05:01.184Z,99.90
2018-06-23T02:07:29.497Z,99.90
2018-06-23T02:09:58.716Z,99.90
2018-06-23T02:12:27.070Z,99.90
2018-06-23T02:15:11.361Z,99.90
2018-06-23T02:17:57.484Z,99.90
2018-06-23T02:23:29.338Z,99.90
2018-06-23T02:26:15.658Z,99.90
2018-06-23T02:34:33.851Z,99.90
2018-06-23T02:37:02.176Z,99.90
2018-06-23T02:39:30.575Z,99.90
2018-06-23T02:44:26.880Z,99.90
2018-06-23T02:46:55.244Z,99.90
2018-06-23T02:49:23.619Z,99.90
2018-06-23T02:51:51.883Z,99.90
2018-06-23T02:54:20.155Z,99.90
2018-06-23T02:56:49.323Z,99.90
2018-06-23T02:59:19.807Z,99.90
2018-06-23T03:04:17.091Z,99.90
2018-06-23T03:09:13.567Z,99.90
2018-06-23T03:11:41.963Z,99.90
2018-06-23T03:14:10.346Z,99.90
2018-06-23T03:16:38.759Z,99.90
2018-06-23T03:19:07.321Z,99.90
2018-06-23T03:21:35.662Z,99.90
2018-06-23T03:24:07.785Z,99.90
2018-06-23T03:26:36.260Z,99.90
2018-06-23T03:29:04.814Z,99.90
2018-06-23T03:31:33.162Z,99.90
2018-06-23T03:34:01.616Z,99.90
2018-06-23T03:36:29.922Z,99.90
2018-06-23T03:41:27.316Z,99.90
2018-06-23T03:43:55.649Z,99.90
2018-06-23T03:46:26.483Z,99.90
2018-06-23T03:48:55.052Z,99.90
2018-06-23T03:51:23.426Z,99.90
2018-06-23T03:53:51.743Z,99.90
2018-06-23T04:01:17.368Z,99.90
2018-06-23T04:03:47.462Z,99.90
2018-06-23T04:06:15.799Z,99.90
2018-06-23T04:11:12.394Z,99.90
2018-06-23T04:13:40.723Z,99.90
2018-06-23T04:21:08.830Z,99.90
2018-06-23T04:23:37.272Z,99.90
2018-06-23T04:26:06.228Z,99.90
2018-06-23T04:31:02.805Z,99.90
2018-06-23T04:33:31.170Z,99.90
2018-06-23T04:35:59.477Z,99.90
2018-06-23T04:38:27.802Z,99.90
2018-06-23T04:43:26.577Z,99.90
2018-06-23T04:45:55.791Z,99.90
2018-06-23T04:48:25.368Z,99.90
2018-06-23T04:50:53.713Z,99.90
2018-06-23T04:53:22.099Z,99.90
2018-06-23T04:55:51.210Z,99.90
2018-06-23T04:58:19.583Z,99.90
2018-06-23T05:00:48.111Z,99.90
2018-06-23T05:03:16.504Z,99.90
2018-06-23T05:10:41.091Z,99.90
2018-06-23T05:13:09.416Z,99.90
2018-06-23T05:18:06.090Z,99.90
2018-06-23T05:20:34.459Z,99.90
2018-06-23T05:25:30.934Z,99.90
2018-06-23T05:28:00.476Z,99.90
2018-06-23T05:30:30.006Z,99.90
2018-06-23T05:35:27.988Z,99.90
2018-06-23T05:40:25.964Z,99.90
2018-06-23T05:42:54.383Z,99.90
2018-06-23T05:45:22.704Z,99.90
2018-06-23T05:47:51.094Z,99.90
2018-06-23T05:50:19.539Z,99.90
2018-06-23T05:52:47.926Z,99.90
2018-06-23T05:55:16.384Z,99.90
2018-06-23T05:57:46.172Z,99.90
2018-06-23T06:02:42.706Z,99.90
2018-06-23T06:05:12.055Z,99.90
2018-06-23T06:07:40.492Z,99.90
2018-06-23T06:10:09.887Z,99.90
2018-06-23T06:12:38.277Z,99.90
2018-06-23T06:17:38.614Z,99.90
2018-06-23T06:20:08.659Z,99.90
2018-06-23T06:25:09.273Z,99.90
2018-06-23T06:27:37.691Z,99.90
2018-06-23T06:32:34.922Z,99.90
2018-06-23T06:35:03.335Z,99.90
2018-06-23T06:42:27.976Z,99.90
2018-06-23T06:47:24.558Z,99.90
2018-06-23T06:49:52.912Z,99.90
2018-06-23T06:52:21.305Z,99.90
2018-06-23T06:54:49.747Z,99.90
2018-06-23T06:59:47.364Z,99.90
2018-06-23T07:02:17.234Z,99.90
2018-06-23T07:12:10.921Z,99.90
2018-06-23T07:14:39.444Z,99.90
2018-06-23T07:19:36.007Z,99.90
2018-06-23T07:22:04.538Z,99.90
2018-06-23T07:24:32.921Z,99.90
2018-06-23T07:27:01.260Z,99.70
2018-06-23T07:29:29.636Z,99.90
2018-06-23T07:31:58.080Z,99.90
2018-06-23T07:34:26.519Z,99.90
2018-06-23T07:41:51.119Z,99.50
2018-06-23T07:44:19.508Z,99.90
2018-06-23T07:46:48.003Z,97.70
2018-06-23T07:49:16.417Z,99.20
2018-06-23T07:51:46.358Z,99.90
2018-06-23T07:56:42.916Z,97.70
2018-06-23T08:01:39.495Z,97.60
2018-06-23T08:04:07.833Z,98.80
2018-06-23T08:06:36.235Z,99.50
2018-06-23T08:09:10.028Z,98.00
2018-06-23T08:14:06.658Z,98.10
2018-06-23T08:16:35.159Z,98.00
2018-06-23T08:19:03.574Z,96.30
2018-06-23T08:24:01.496Z,97.70
2018-06-23T08:26:29.943Z,97.70
2018-06-23T08:28:58.260Z,98.50
2018-06-23T08:31:26.666Z,98.00
2018-06-23T08:33:55.081Z,97.30
2018-06-23T08:36:24.921Z,96.90
2018-06-23T08:38:53.382Z,96.30
2018-06-23T08:41:21.863Z,95.70
2018-06-23T08:43:50.246Z,95.30
2018-06-23T08:46:18.643Z,95.50
2018-06-23T08:48:47.059Z,94.50
2018-06-23T08:56:11.646Z,94.70
2018-06-23T08:58:43.341Z,95.70
2018-06-23T09:01:11.807Z,95.20
2018-06-23T09:03:40.242Z,96.30
2018-06-23T09:06:08.617Z,95.70
2018-06-23T09:08:37.077Z,96.50
2018-06-23T09:13:33.688Z,95.50
2018-06-23T09:20:58.261Z,93.60
2018-06-23T09:25:55.009Z,93.60
2018-06-23T09:28:23.601Z,92.00
2018-06-23T09:30:52.279Z,91.10
2018-06-23T09:35:48.895Z,90.50
2018-06-23T09:38:17.409Z,91.50
2018-06-23T09:43:14.486Z,91.10
2018-06-23T09:45:42.864Z,89.80
2018-06-23T09:48:11.398Z,90.10
2018-06-23T09:50:40.392Z,89.20
2018-06-23T09:53:08.890Z,89.30
2018-06-23T09:55:37.283Z,87.60
2018-06-23T09:58:05.861Z,88.50
2018-06-23T10:00:34.293Z,86.90
2018-06-23T10:03:02.690Z,86.60
2018-06-23T10:05:31.140Z,85.70
2018-06-23T10:10:30.461Z,85.40
2018-06-23T10:15:26.982Z,85.30
2018-06-23T10:17:55.437Z,85.80
2018-06-23T10:20:24.754Z,85.30
2018-06-23T10:31:57.814Z,84.80
2018-06-23T10:34:27.217Z,87.30
2018-06-23T10:37:08.846Z,86.10
2018-06-23T10:39:38.117Z,85.10
2018-06-23T10:42:06.688Z,84.50
2018-06-23T10:44:36.328Z,83.20
2018-06-23T10:52:03.107Z,83.50
2018-06-23T10:54:30.310Z,81.50
2018-06-23T10:57:00.248Z,81.20
2018-06-23T10:59:28.690Z,78.20
2018-06-23T11:01:59.684Z,79.60
2018-06-23T11:04:28.938Z,80.00
2018-06-23T11:07:08.052Z,79.40
2018-06-23T11:09:40.134Z,81.30
2018-06-23T11:12:38.946Z,81.10
2018-06-23T11:15:21.839Z,78.80
2018-06-23T11:18:11.845Z,75.10
2018-06-23T11:20:41.579Z,77.40
2018-06-23T11:25:40.176Z,73.50
2018-06-23T11:28:10.141Z,73.80
2018-06-23T11:30:38.587Z,74.80
2018-06-23T11:33:08.201Z,76.20
2018-06-23T11:35:36.711Z,78.30
2018-06-23T11:40:35.325Z,76.70
2018-06-23T11:45:33.423Z,78.40
2018-06-23T11:48:05.071Z,79.00
2018-06-23T11:50:33.505Z,76.50
2018-06-23T11:53:11.824Z,79.00
2018-06-23T11:55:42.663Z,77.10
2018-06-23T11:58:12.188Z,72.40
2018-06-23T12:03:11.096Z,70.50
2018-06-23T12:05:40.862Z,70.30
2018-06-23T12:08:25.349Z,72.10
2018-06-23T12:11:02.270Z,72.20
2018-06-23T12:13:30.777Z,72.70
2018-06-23T12:15:59.177Z,74.10
2018-06-23T12:18:27.682Z,75.50
2018-06-23T12:28:31.223Z,75.60
2018-06-23T12:31:01.334Z,76.20
2018-06-23T12:33:29.807Z,78.90
2018-06-23T12:41:00.868Z,76.90
2018-06-23T12:47:40.464Z,74.70
2018-06-23T12:59:19.889Z,68.30
2018-06-23T13:09:40.322Z,67.50
2018-06-23T13:12:10.031Z,69.10
2018-06-23T13:14:41.649Z,69.60
2018-06-23T13:17:10.260Z,67.50
2018-06-23T13:19:38.732Z,70.60
2018-06-23T13:22:07.270Z,69.50
2018-06-23T13:24:36.937Z,71.40
2018-06-23T13:27:05.625Z,72.70
2018-06-23T13:29:34.321Z,72.80
2018-06-23T13:32:02.756Z,73.30
2018-06-23T13:34:32.960Z,74.60
2018-06-23T13:37:01.545Z,75.30
2018-06-23T13:39:30.036Z,75.10
2018-06-23T13:41:58.504Z,76.60
2018-06-23T13:44:26.912Z,78.30
2018-06-23T13:46:55.400Z,79.30
2018-06-23T13:49:23.965Z,80.50
2018-06-23T13:51:53.885Z,82.70
2018-06-23T13:54:25.494Z,86.20
2018-06-23T13:59:23.249Z,91.10
2018-06-23T14:01:51.677Z,91.40
2018-06-23T14:04:21.251Z,91.20
2018-06-23T14:06:52.547Z,91.50
2018-06-23T14:09:28.168Z,91.60
2018-06-23T14:11:56.937Z,91.30
2018-06-23T14:14:25.658Z,91.30
2018-06-23T14:16:54.371Z,91.00
2018-06-23T14:19:22.957Z,90.60
2018-06-23T14:21:51.401Z,90.50
2018-06-23T14:24:19.945Z,90.20
2018-06-23T14:26:48.430Z,89.80
2018-06-23T14:29:17.044Z,89.80
2018-06-23T14:31:45.757Z,84.80
2018-06-23T14:34:14.215Z,82.80
2018-06-23T14:42:24.444Z,80.00
2018-06-23T14:44:58.728Z,78.20
2018-06-23T14:47:28.581Z,80.20
2018-06-23T14:52:25.213Z,82.00
2018-06-23T14:55:12.356Z,83.00
2018-06-23T14:57:42.649Z,82.80
2018-06-23T15:02:47.189Z,83.40
2018-06-23T15:05:18.789Z,83.70
2018-06-23T15:07:47.179Z,83.50
2018-06-23T15:11:05.832Z,83.50
2018-06-23T15:13:37.041Z,80.50
2018-06-23T15:16:07.755Z,79.80
2018-06-23T15:21:05.532Z,83.80
2018-06-23T15:23:33.915Z,82.10
2018-06-23T15:28:30.417Z,82.40
2018-06-23T15:30:58.860Z,80.50
2018-06-23T15:33:27.292Z,78.70
2018-06-23T15:35:55.837Z,78.10
2018-06-23T15:38:24.319Z,78.00
2018-06-23T15:45:50.297Z,78.80
2018-06-23T15:48:18.732Z,79.20
2018-06-23T15:53:15.662Z,77.80
2018-06-23T15:55:43.844Z,76.60
2018-06-23T15:58:12.253Z,74.30
2018-06-23T16:00:40.669Z,76.40
2018-06-23T16:03:09.276Z,75.70
2018-06-23T16:05:37.918Z,76.40
2018-06-23T16:08:06.349Z,77.70
2018-06-23T16:10:34.894Z,77.90
2018-06-23T16:13:07.750Z,77.90
2018-06-23T16:18:04.796Z,78.50
2018-06-23T16:20:33.675Z,78.80
2018-06-23T16:23:02.406Z,78.50
2018-06-23T16:25:47.272Z,79.80
2018-06-23T16:31:02.400Z,81.80
2018-06-23T16:33:50.829Z,83.40
2018-06-23T16:41:35.900Z,85.00
2018-06-23T16:44:07.383Z,83.00
2018-06-23T16:49:04.099Z,78.40
2018-06-23T16:51:32.681Z,77.30
2018-06-23T16:54:23.583Z,74.90
2018-06-23T16:56:52.040Z,71.90
2018-06-23T17:06:57.003Z,67.20
2018-06-23T17:11:54.908Z,67.90
2018-06-23T17:14:23.793Z,68.00
2018-06-23T17:19:24.408Z,66.90
2018-06-23T17:21:52.813Z,67.00
2018-06-23T17:29:17.716Z,68.90
2018-06-23T17:31:46.148Z,68.40
2018-06-23T17:34:15.724Z,69.80
2018-06-23T17:39:13.250Z,66.40
2018-06-23T17:44:10.030Z,66.50
2018-06-23T17:46:40.916Z,66.80
2018-06-23T17:51:37.542Z,67.80
2018-06-23T17:54:05.922Z,65.80
2018-06-23T17:56:34.261Z,66.40
2018-06-23T17:59:02.734Z,68.00
2018-06-23T18:01:31.268Z,65.90
2018-06-23T18:04:02.046Z,67.60
2018-06-23T18:06:31.366Z,66.10
2018-06-23T18:08:59.708Z,65.10
2018-06-23T18:13:57.297Z,64.00
2018-06-23T18:16:25.652Z,64.50
2018-06-23T18:18:54.016Z,65.80
2018-06-23T18:21:22.498Z,66.80
2018-06-23T18:23:50.888Z,68.20
2018-06-23T18:26:19.303Z,68.80
2018-06-23T18:33:45.080Z,70.40
2018-06-23T18:36:18.841Z,70.90
2018-06-23T18:41:16.901Z,69.80
2018-06-23T18:43:45.307Z,69.20
2018-06-23T18:46:18.229Z,68.50
2018-06-23T18:51:15.770Z,70.80
2018-06-23T18:53:44.142Z,70.60
2018-06-23T18:56:15.732Z,71.10
2018-06-23T18:58:45.671Z,71.80
2018-06-23T19:01:14.122Z,70.10
2018-06-23T19:03:44.502Z,71.20
2018-06-23T19:06:23.449Z,72.10
2018-06-23T19:11:22.702Z,73.10
2018-06-23T19:13:51.281Z,72.80
2018-06-23T19:16:22.880Z,73.60
2018-06-23T19:18:53.588Z,73.60
2018-06-23T19:21:23.615Z,73.90
2018-06-23T19:26:21.499Z,75.60
2018-06-23T19:28:50.166Z,76.80
2018-06-23T19:36:14.828Z,79.20
2018-06-23T19:38:43.400Z,80.00
2018-06-23T19:41:26.715Z,80.90
2018-06-23T19:43:55.123Z,81.50
2018-06-23T19:46:23.549Z,82.60
2018-06-23T19:51:20.252Z,83.90
2018-06-23T19:53:48.713Z,84.50
2018-06-23T19:58:45.151Z,84.50
2018-06-23T20:01:13.584Z,85.90
2018-06-23T20:03:42.045Z,86.90
2018-06-23T20:06:10.570Z,87.50
2018-06-23T20:08:40.723Z,85.80
2018-06-23T20:11:09.489Z,87.20
2018-06-23T20:13:37.859Z,86.20
2018-06-23T20:18:34.470Z,88.00
2018-06-23T20:21:02.995Z,88.70
2018-06-23T20:23:31.301Z,89.30
2018-06-23T20:26:01.556Z,90.00
2018-06-23T20:28:28.087Z,90.40
2018-06-23T20:30:56.624Z,90.60
2018-06-23T20:33:25.216Z,90.70
2018-06-23T20:35:54.889Z,90.80
2018-06-23T20:38:23.651Z,90.30
2018-06-23T20:40:54.282Z,90.80
2018-06-23T20:43:23.601Z,91.40
2018-06-23T20:45:53.034Z,91.70
2018-06-23T20:48:24.505Z,92.10
2018-06-23T20:51:03.567Z,91.60
2018-06-23T20:53:34.453Z,92.20
2018-06-23T20:58:30.957Z,92.40
2018-06-23T21:00:59.597Z,92.90
2018-06-23T21:03:27.962Z,93.40
2018-06-23T21:05:56.645Z,93.60
2018-06-23T21:08:27.087Z,94.10
2018-06-23T21:11:01.973Z,94.50
2018-06-23T21:13:31.446Z,95.10
2018-06-23T21:16:00.141Z,95.50
2018-06-23T21:18:28.544Z,95.90
2018-06-23T21:23:25.285Z,96.70
2018-06-23T21:25:53.649Z,96.80
2018-06-23T21:30:50.772Z,97.30
2018-06-23T21:33:19.364Z,97.50
2018-06-23T21:35:47.605Z,97.60
2018-06-23T21:38:16.296Z,98.00
2018-06-23T21:40:46.209Z,98.10
2018-06-23T21:43:15.692Z,97.80
2018-06-23T21:45:44.160Z,97.90
2018-06-23T21:48:13.008Z,97.30
2018-06-23T21:50:41.419Z,97.60
2018-06-23T21:53:10.009Z,98.00
2018-06-23T21:55:39.271Z,98.50
2018-06-23T21:58:09.779Z,99.00
2018-06-23T22:00:43.239Z,99.30
2018-06-23T22:06:53.200Z,99.70
2018-06-23T22:09:21.577Z,98.80
2018-06-23T22:11:50.089Z,99.50
2018-06-23T22:14:18.527Z,99.90
2018-06-23T22:16:46.977Z,99.90
2018-06-23T22:19:19.112Z,99.90
2018-06-23T22:24:15.804Z,99.90
2018-06-23T22:26:44.123Z,99.90
2018-06-23T22:29:12.495Z,99.90
2018-06-23T22:31:40.858Z,99.90
2018-06-23T22:34:09.260Z,99.90
2018-06-23T22:36:37.660Z,99.90
2018-06-23T22:41:35.864Z,99.90
2018-06-23T22:46:32.369Z,99.90
2018-06-23T22:49:00.804Z,99.90
2018-06-23T22:51:29.356Z,99.90
2018-06-23T22:53:57.677Z,99.90
2018-06-23T22:56:26.047Z,99.90
2018-06-23T22:58:54.443Z,99.90
2018-06-23T23:01:22.783Z,99.90
2018-06-23T23:03:51.123Z,99.90
2018-06-23T23:06:19.603Z,99.90
2018-06-23T23:08:47.973Z,99.90
2018-06-23T23:11:16.414Z,99.90
2018-06-23T23:16:12.835Z,99.90
2018-06-23T23:18:41.161Z,99.90
2018-06-23T23:21:09.806Z,99.90
2018-06-23T23:23:38.123Z,99.90
2018-06-23T23:26:06.471Z,99.90
2018-06-23T23:28:34.816Z,99.90
2018-06-23T23:31:03.152Z,99.90
2018-06-23T23:33:31.465Z,99.90
2018-06-23T23:36:01.043Z,99.90
2018-06-23T23:38:28.165Z,99.90
2018-06-23T23:43:24.586Z,99.90
2018-06-23T23:45:52.927Z,99.90
2018-06-23T23:48:21.247Z,99.90
2018-06-23T23:50:49.637Z,99.90
2018-06-23T23:53:17.943Z,99.90
2018-06-23T23:58:14.327Z,99.90
